Time;durP1;ratioP1;P1;durP2;ratioP2;P2;SDS_P1;SDS_P2;PMS_P1;PMS_P2;Temp;Humidity;BMP_temperature;BMP_pressure;BME280_temperature;BME280_humidity;BME280_pressure;Samples;Min_cycle;Max_cycle;Signal;HPM_P1;HPM_P2
2023/07/09 00:01:17;;;;;;;12.63;11.13;;;22.90;99.90;;;;;;4929628;28;38030;-88
2023/07/09 00:03:51;;;;;;;13.82;11.07;;;22.80;99.90;;;;;;4896638;29;37478;-88
2023/07/09 00:06:18;;;;;;;12.77;10.48;;;22.80;99.90;;;;;;4901643;29;37194;-88
2023/07/09 00:08:48;;;;;;;13.38;10.48;;;22.80;99.90;;;;;;4911362;28;37971;-87
2023/07/09 00:11:15;;;;;;;13.75;11.43;;;22.70;99.90;;;;;;4907175;29;39127;-88
2023/07/09 00:13:41;;;;;;;14.65;11.05;;;22.70;99.90;;;;;;4907380;28;38028;-88
2023/07/09 00:16:18;;;;;;;14.60;11.25;;;22.70;99.90;;;;;;4919881;28;37120;-87
2023/07/09 00:18:44;;;;;;;11.88;10.68;;;22.60;99.90;;;;;;4906556;29;37852;-87
2023/07/09 00:21:11;;;;;;;13.45;11.68;;;22.60;99.90;;;;;;4899821;29;37494;-87
2023/07/09 00:23:39;;;;;;;13.32;10.70;;;22.70;99.90;;;;;;4909588;29;38361;-88
2023/07/09 00:26:13;;;;;;;13.18;10.60;;;22.60;99.90;;;;;;4908331;29;39457;-88
2023/07/09 00:28:43;;;;;;;13.98;10.90;;;22.70;99.90;;;;;;4906694;29;37439;-88
2023/07/09 00:31:15;;;;;;;16.58;12.05;;;22.70;99.90;;;;;;4904570;29;37664;-89
2023/07/09 00:33:42;;;;;;;13.25;11.85;;;22.60;99.90;;;;;;4918534;28;40350;-88
2023/07/09 00:36:28;;;;;;;14.25;12.00;;;22.60;99.90;;;;;;4909300;29;37177;-88
2023/07/09 00:38:59;;;;;;;15.38;11.85;;;22.60;99.90;;;;;;4901619;29;36568;-88
2023/07/09 00:41:26;;;;;;;12.18;10.88;;;22.50;99.90;;;;;;4907022;29;39540;-89
2023/07/09 00:43:52;;;;;;;14.77;11.45;;;22.50;99.90;;;;;;4900864;29;38211;-87
2023/07/09 00:46:23;;;;;;;13.02;11.63;;;22.50;99.90;;;;;;4907516;29;36990;-87
2023/07/09 00:49:06;;;;;;;13.07;10.55;;;22.40;99.90;;;;;;4909867;29;37304;-88
2023/07/09 00:51:46;;;;;;;16.63;10.93;;;22.40;99.90;;;;;;4909584;29;47362;-89
2023/07/09 00:54:41;;;;;;;12.88;10.82;;;22.40;99.90;;;;;;4906470;29;37869;-88
2023/07/09 00:57:17;;;;;;;12.20;10.23;;;22.40;99.90;;;;;;4905977;29;37173;-88
2023/07/09 00:59:48;;;;;;;14.00;11.27;;;22.30;99.90;;;;;;4904464;29;36834;-88
2023/07/09 01:02:14;;;;;;;11.98;10.20;;;22.30;99.90;;;;;;5347039;23;38628;-85
2023/07/09 01:04:41;;;;;;;13.05;10.80;;;22.30;99.90;;;;;;4933578;28;37391;-85
2023/07/09 01:07:08;;;;;;;13.30;10.98;;;22.30;99.90;;;;;;4921675;28;39100;-85
2023/07/09 01:09:40;;;;;;;14.45;10.38;;;22.20;99.90;;;;;;4916686;28;37214;-86
2023/07/09 01:12:09;;;;;;;11.35;9.90;;;22.20;99.90;;;;;;4917858;28;37801;-86
2023/07/09 01:14:36;;;;;;;14.40;10.95;;;22.20;99.90;;;;;;4919457;28;37770;-86
2023/07/09 01:17:07;;;;;;;11.73;10.50;;;22.20;99.90;;;;;;4915830;28;39341;-86
2023/07/09 01:19:43;;;;;;;14.75;11.48;;;22.10;99.90;;;;;;4920609;28;36462;-85
2023/07/09 01:22:11;;;;;;;12.98;10.00;;;22.20;99.90;;;;;;4917336;28;38707;-86
2023/07/09 01:25:01;;;;;;;12.55;11.25;;;22.20;99.90;;;;;;4913586;28;37361;-86
2023/07/09 01:27:38;;;;;;;13.65;11.25;;;22.20;99.90;;;;;;4916849;28;36996;-85
2023/07/09 01:30:30;;;;;;;14.52;10.63;;;22.20;99.90;;;;;;4918268;28;37727;-86
2023/07/09 01:32:57;;;;;;;;;;;22.20;99.90;;;;;;4916252;28;38045;-86
2023/07/09 01:35:25;;;;;;;12.48;10.43;;;22.10;99.90;;;;;;4920639;28;37780;-86
2023/07/09 01:37:52;;;;;;;12.90;11.55;;;22.00;99.90;;;;;;4911546;28;39108;-85
2023/07/09 01:40:20;;;;;;;12.10;10.73;;;22.00;99.90;;;;;;4917829;28;38022;-85
2023/07/09 01:42:46;;;;;;;13.98;11.35;;;21.90;99.90;;;;;;4929832;28;39322;-86
2023/07/09 01:45:13;;;;;;;12.88;11.00;;;21.80;99.90;;;;;;4928217;28;38325;-86
2023/07/09 01:47:39;;;;;;;13.77;11.00;;;21.90;99.90;;;;;;4925245;28;38244;-84
2023/07/09 01:50:07;;;;;;;12.52;10.98;;;21.80;99.90;;;;;;4913663;28;37851;-86
2023/07/09 01:52:34;;;;;;;14.20;11.45;;;21.80;99.90;;;;;;4917135;28;47173;-85
2023/07/09 01:55:01;;;;;;;15.55;10.50;;;21.80;99.90;;;;;;4920012;28;38734;-86
2023/07/09 01:57:33;;;;;;;13.88;10.88;;;21.80;99.90;;;;;;4922968;28;38286;-86
2023/07/09 02:00:01;;;;;;;12.45;10.25;;;21.80;99.90;;;;;;4922937;28;37561;-86
2023/07/09 02:02:27;;;;;;;13.55;11.02;;;21.70;99.90;;;;;;4919284;28;39132;-86
2023/07/09 02:04:55;;;;;;;12.55;10.98;;;21.70;99.90;;;;;;4917742;28;39096;-86
2023/07/09 02:07:23;;;;;;;12.38;10.30;;;21.70;99.90;;;;;;4929154;28;39083;-86
2023/07/09 02:09:50;;;;;;;13.63;10.73;;;21.70;99.90;;;;;;4927568;28;39240;-87
2023/07/09 02:12:17;;;;;;;13.68;11.77;;;21.70;99.90;;;;;;4921516;28;38718;-87
2023/07/09 02:14:44;;;;;;;14.95;12.23;;;21.70;99.90;;;;;;4939631;28;39614;-87
2023/07/09 02:17:13;;;;;;;14.05;11.95;;;21.70;99.90;;;;;;4926919;28;37161;-88
2023/07/09 02:19:39;;;;;;;16.23;12.70;;;21.70;99.90;;;;;;4921782;28;39279;-88
2023/07/09 02:22:06;;;;;;;15.65;11.82;;;21.70;99.90;;;;;;4928523;28;39537;-88
2023/07/09 02:24:33;;;;;;;15.05;11.73;;;21.60;99.90;;;;;;4917474;28;38063;-88
2023/07/09 02:27:02;;;;;;;13.18;11.20;;;21.60;99.90;;;;;;4933843;28;39330;-86
2023/07/09 02:29:29;;;;;;;13.55;11.30;;;21.60;99.90;;;;;;4919101;28;47133;-87
2023/07/09 02:31:57;;;;;;;15.07;11.38;;;21.60;99.90;;;;;;4923249;28;38313;-88
2023/07/09 02:34:27;;;;;;;15.27;12.05;;;21.60;99.90;;;;;;4929939;28;37513;-87
2023/07/09 02:36:56;;;;;;;16.48;12.30;;;21.60;99.90;;;;;;4915964;28;38687;-89
2023/07/09 02:39:23;;;;;;;13.45;12.05;;;21.60;99.90;;;;;;4919608;28;38424;-87
2023/07/09 02:41:49;;;;;;;16.00;10.98;;;21.60;99.90;;;;;;4923009;28;40091;-89
2023/07/09 02:44:19;;;;;;;12.38;10.75;;;21.60;99.90;;;;;;4927464;28;37543;-89
2023/07/09 02:46:46;;;;;;;15.32;12.75;;;21.60;99.90;;;;;;4926768;28;38740;-89
2023/07/09 02:49:13;;;;;;;13.30;10.82;;;21.60;99.90;;;;;;4919017;28;36307;-87
2023/07/09 02:51:40;;;;;;;15.57;12.70;;;21.60;99.90;;;;;;4915537;28;40379;-86
2023/07/09 02:54:06;;;;;;;13.43;10.93;;;21.60;99.90;;;;;;4918605;28;38233;-86
2023/07/09 02:56:33;;;;;;;11.95;10.60;;;21.60;99.90;;;;;;4926430;28;37206;-87
2023/07/09 02:58:59;;;;;;;12.52;11.05;;;21.60;99.90;;;;;;4919656;28;37928;-88
2023/07/09 03:01:26;;;;;;;14.30;11.52;;;21.60;99.90;;;;;;4915524;28;38117;-88
2023/07/09 03:03:54;;;;;;;13.85;12.13;;;21.60;99.90;;;;;;4920301;28;37706;-87
2023/07/09 03:06:22;;;;;;;15.55;12.77;;;21.60;99.90;;;;;;4922844;28;38276;-86
2023/07/09 03:08:48;;;;;;;12.55;10.85;;;21.60;99.90;;;;;;4943715;28;36153;-88
2023/07/09 03:11:16;;;;;;;12.43;11.13;;;21.50;99.90;;;;;;4920052;28;37767;-87
2023/07/09 03:13:43;;;;;;;12.90;10.63;;;21.40;99.90;;;;;;4926296;28;37963;-87
2023/07/09 03:16:11;;;;;;;16.10;11.10;;;21.40;99.90;;;;;;4923516;28;38537;-88
2023/07/09 03:18:37;;;;;;;12.30;11.00;;;21.50;99.90;;;;;;4944127;28;39020;-87
2023/07/09 03:21:04;;;;;;;14.30;10.95;;;21.50;99.90;;;;;;4929843;28;38753;-87
2023/07/09 03:23:30;;;;;;;20.35;12.68;;;21.50;99.90;;;;;;4920001;28;39441;-87
2023/07/09 03:25:59;;;;;;;15.90;11.73;;;21.60;99.90;;;;;;4923090;28;39876;-87
2023/07/09 03:28:25;;;;;;;14.50;11.52;;;21.60;99.90;;;;;;4917660;28;37818;-87
2023/07/09 03:30:55;;;;;;;15.80;10.45;;;21.70;99.90;;;;;;4919960;28;38721;-88
2023/07/09 03:33:21;;;;;;;15.07;12.68;;;21.70;99.90;;;;;;4933473;28;37448;-88
2023/07/09 03:35:47;;;;;;;12.02;10.65;;;21.70;99.90;;;;;;4933302;28;37126;-88
2023/07/09 03:38:13;;;;;;;11.65;9.95;;;21.70;99.90;;;;;;4927449;28;37504;-88
2023/07/09 03:40:39;;;;;;;12.15;9.82;;;21.70;99.90;;;;;;4921732;28;39570;-87
2023/07/09 03:43:07;;;;;;;12.52;10.50;;;21.80;99.90;;;;;;4936204;28;38798;-88
2023/07/09 03:45:35;;;;;;;12.52;10.15;;;21.80;99.90;;;;;;4915454;28;38832;-86
2023/07/09 03:48:02;;;;;;;12.13;10.55;;;21.80;99.90;;;;;;4923121;28;38152;-83
2023/07/09 03:50:32;;;;;;;12.00;10.65;;;21.80;99.90;;;;;;4916971;28;39691;-89
2023/07/09 03:52:59;;;;;;;11.90;10.23;;;21.80;99.90;;;;;;4926432;28;39304;-87
2023/07/09 03:55:26;;;;;;;15.90;10.70;;;21.70;99.90;;;;;;4916685;28;39320;-87
2023/07/09 03:57:56;;;;;;;15.73;10.50;;;21.60;99.90;;;;;;4913467;28;38135;-90
2023/07/09 04:00:24;;;;;;;12.50;9.35;;;21.50;99.90;;;;;;4907425;28;39718;-88
2023/07/09 04:02:51;;;;;;;15.23;11.40;;;21.50;99.90;;;;;;4911849;28;37718;-88
2023/07/09 04:05:32;;;;;;;12.98;10.65;;;21.50;99.90;;;;;;5110969;27;1464175;-89
2023/07/09 04:07:58;;;;;;;14.93;10.38;;;21.50;99.90;;;;;;5139760;27;39942;-89
2023/07/09 04:10:25;;;;;;;11.15;9.43;;;21.50;99.90;;;;;;5133976;27;38257;-89
2023/07/09 04:12:51;;;;;;;12.77;9.98;;;21.40;99.90;;;;;;5143761;27;39624;-88
2023/07/09 04:15:20;;;;;;;14.35;9.75;;;21.50;99.90;;;;;;5139889;27;38477;-89
2023/07/09 04:17:47;;;;;;;13.60;11.90;;;21.50;99.90;;;;;;5158285;27;39350;-89
2023/07/09 04:20:13;;;;;;;13.40;10.13;;;21.50;99.90;;;;;;5143210;27;37514;-88
2023/07/09 04:22:40;;;;;;;11.30;10.07;;;21.50;99.90;;;;;;5151181;27;39788;-89
2023/07/09 04:25:09;;;;;;;13.68;10.38;;;21.50;99.90;;;;;;5147787;27;38809;-89
2023/07/09 04:27:37;;;;;;;14.02;10.50;;;21.50;99.90;;;;;;5140458;27;38089;-89
2023/07/09 04:30:05;;;;;;;12.82;10.05;;;21.50;99.90;;;;;;5141540;27;37026;-89
2023/07/09 04:32:31;;;;;;;13.50;10.07;;;21.50;99.90;;;;;;5145305;27;47654;-89
2023/07/09 04:34:57;;;;;;;15.35;10.13;;;21.50;99.90;;;;;;5140783;27;38994;-89
2023/07/09 04:37:26;;;;;;;13.20;9.15;;;21.60;99.90;;;;;;5151990;27;36660;-89
2023/07/09 04:39:52;;;;;;;15.18;10.38;;;21.60;99.90;;;;;;5138719;27;36657;-89
2023/07/09 04:42:19;;;;;;;12.35;10.02;;;21.60;99.90;;;;;;5134912;27;37425;-89
2023/07/09 04:44:45;;;;;;;10.98;9.07;;;21.70;99.90;;;;;;5145589;27;39243;-89
2023/07/09 04:47:12;;;;;;;12.63;10.50;;;21.80;99.90;;;;;;5139452;27;37263;-89
2023/07/09 04:49:38;;;;;;;13.77;10.43;;;21.80;99.90;;;;;;5143721;27;37724;-89
2023/07/09 04:52:05;;;;;;;11.77;9.93;;;21.90;99.90;;;;;;5145800;27;38440;-89
2023/07/09 04:54:32;;;;;;;16.42;10.85;;;22.00;99.90;;;;;;5137788;27;37774;-88
2023/07/09 04:56:58;;;;;;;11.38;9.52;;;22.00;99.90;;;;;;5146724;27;38556;-89
2023/07/09 04:59:25;;;;;;;11.63;8.45;;;22.10;99.90;;;;;;5141964;27;38436;-89
2023/07/09 05:01:51;;;;;;;10.68;9.18;;;22.20;99.90;;;;;;5138042;27;39092;-90
2023/07/09 05:04:17;;;;;;;11.77;9.75;;;22.40;99.90;;;;;;5148149;27;38708;-89
2023/07/09 05:06:43;;;;;;;15.88;11.35;;;22.60;99.90;;;;;;5135002;27;37508;-89
2023/07/09 05:09:09;;;;;;;16.60;10.25;;;22.70;99.90;;;;;;5157306;27;38710;-89
2023/07/09 05:11:36;;;;;;;12.65;9.88;;;22.90;99.90;;;;;;5135984;27;38890;-89
2023/07/09 05:14:03;;;;;;;16.17;12.13;;;23.10;99.90;;;;;;5140404;27;38955;-89
2023/07/09 05:16:30;;;;;;;14.82;11.63;;;23.20;99.90;;;;;;5126362;27;36584;-90
2023/07/09 05:18:56;;;;;;;13.27;10.32;;;23.30;99.90;;;;;;5131627;27;38197;-90
2023/07/09 05:21:22;;;;;;;13.50;9.65;;;23.40;99.90;;;;;;5131102;27;39584;-88
2023/07/09 05:23:49;;;;;;;10.68;9.50;;;23.60;99.90;;;;;;5126766;27;39500;-89
2023/07/09 05:26:15;;;;;;;13.75;10.13;;;23.70;99.90;;;;;;5130004;27;37739;-88
2023/07/09 05:28:41;;;;;;;11.25;9.32;;;23.80;99.90;;;;;;5120262;27;37748;-88
2023/07/09 05:31:07;;;;;;;14.05;10.23;;;23.90;99.90;;;;;;5123389;27;39934;-88
2023/07/09 05:33:33;;;;;;;20.80;14.13;;;23.90;99.90;;;;;;5135578;27;39064;-89
2023/07/09 05:35:59;;;;;;;19.67;15.27;;;24.00;99.90;;;;;;5119396;27;38659;-88
2023/07/09 05:38:25;;;;;;;27.50;20.73;;;24.00;99.90;;;;;;5108827;27;37748;-89
2023/07/09 05:41:03;;;;;;;25.98;20.35;;;24.00;99.90;;;;;;5122298;27;37916;-90
2023/07/09 05:43:30;;;;;;;22.50;18.65;;;24.00;99.90;;;;;;5126125;27;47144;-89
2023/07/09 05:45:57;;;;;;;20.63;18.23;;;24.00;99.90;;;;;;5128080;27;38835;-88
2023/07/09 05:48:26;;;;;;;22.48;19.05;;;24.00;99.90;;;;;;5137669;27;37761;-89
2023/07/09 05:50:54;;;;;;;26.67;21.70;;;24.10;99.90;;;;;;5144444;27;38188;-89
2023/07/09 05:53:21;;;;;;;27.23;23.80;;;24.10;99.90;;;;;;5123236;27;38222;-89
2023/07/09 05:55:50;;;;;;;25.45;20.70;;;24.10;99.90;;;;;;5124109;27;37899;-89
2023/07/09 05:58:16;;;;;;;24.58;18.90;;;24.10;99.90;;;;;;5111553;27;37419;-89
2023/07/09 06:00:43;;;;;;;24.13;17.20;;;24.20;99.90;;;;;;5146495;27;38670;-90
2023/07/09 06:03:09;;;;;;;22.13;18.67;;;24.20;99.90;;;;;;5109408;27;39415;-89
2023/07/09 06:05:36;;;;;;;20.80;17.02;;;24.30;99.90;;;;;;5127180;27;37765;-89
2023/07/09 06:08:03;;;;;;;20.92;18.17;;;24.30;99.90;;;;;;5125819;27;37709;-88
2023/07/09 06:10:33;;;;;;;20.95;16.50;;;24.30;94.50;;;;;;5126928;27;37796;-89
2023/07/09 06:12:59;;;;;;;18.52;14.82;;;24.40;91.90;;;;;;5122225;27;39083;-88
2023/07/09 06:15:26;;;;;;;23.58;16.20;;;24.30;92.10;;;;;;5129949;27;37376;-89
2023/07/09 06:17:52;;;;;;;19.67;16.40;;;24.30;82.00;;;;;;5116094;27;38158;-89
2023/07/09 06:20:18;;;;;;;21.83;16.17;;;24.30;61.40;;;;;;5115297;27;37783;-89
2023/07/09 06:22:44;;;;;;;18.40;15.55;;;24.30;54.90;;;;;;5122634;27;37567;-90
2023/07/09 06:25:10;;;;;;;16.08;13.60;;;24.30;39.60;;;;;;5129631;27;37769;-90
2023/07/09 06:27:36;;;;;;;18.20;13.52;;;24.30;34.00;;;;;;5127608;27;36377;-90
2023/07/09 06:30:03;;;;;;;14.77;11.68;;;24.40;17.80;;;;;;5122665;27;39016;-89
2023/07/09 06:32:29;;;;;;;15.43;11.93;;;24.40;11.40;;;;;;5137476;27;37790;-90
2023/07/09 06:34:55;;;;;;;14.50;12.02;;;24.40;1.00;;;;;;5127172;27;36879;-89
2023/07/09 06:37:21;;;;;;;13.85;11.73;;;24.40;1.00;;;;;;5127795;27;37702;-89
2023/07/09 06:39:47;;;;;;;14.18;11.40;;;24.50;6.80;;;;;;5130563;27;37608;-89
2023/07/09 06:42:14;;;;;;;15.20;10.30;;;24.40;1.00;;;;;;5117086;27;37393;-89
2023/07/09 06:44:40;;;;;;;18.58;12.25;;;24.50;18.40;;;;;;5123880;27;38568;-89
2023/07/09 06:47:07;;;;;;;14.05;12.15;;;24.50;1.00;;;;;;5126126;27;36486;-89
2023/07/09 06:49:33;;;;;;;16.00;11.80;;;24.60;1.00;;;;;;5130241;27;39115;-89
2023/07/09 06:52:00;;;;;;;18.85;13.30;;;24.70;1.90;;;;;;5123598;27;36861;-89
2023/07/09 06:54:26;;;;;;;15.40;12.00;;;24.80;1.00;;;;;;5126356;27;37060;-90
2023/07/09 06:56:52;;;;;;;17.77;12.98;;;25.00;12.30;;;;;;5123794;27;37731;-89
2023/07/09 06:59:28;;;;;;;19.33;14.35;;;25.00;1.70;;;;;;5126565;27;37364;-90
2023/07/09 07:01:54;;;;;;;17.40;13.35;;;25.00;1.00;;;;;;5127762;27;39336;-89
2023/07/09 07:04:20;;;;;;;15.68;11.98;;;25.20;2.00;;;;;;5119731;27;36824;-88
2023/07/09 07:06:49;;;;;;;16.70;12.00;;;25.30;1.00;;;;;;5129661;27;37644;-88
2023/07/09 07:09:15;;;;;;;15.38;11.25;;;25.20;1.00;;;;;;5118228;27;37725;-89
2023/07/09 07:11:41;;;;;;;15.32;12.82;;;25.10;1.00;;;;;;5124358;27;37140;-88
2023/07/09 07:14:08;;;;;;;14.63;11.00;;;25.10;1.00;;;;;;5128284;27;36964;-88
2023/07/09 07:16:34;;;;;;;13.65;9.02;;;25.10;26.30;;;;;;5130118;27;36244;-88
2023/07/09 07:19:00;;;;;;;16.00;10.98;;;25.30;21.90;;;;;;5128168;27;39730;-89
2023/07/09 07:21:26;;;;;;;14.60;10.65;;;25.30;1.00;;;;;;5129043;27;38356;-88
2023/07/09 07:23:53;;;;;;;11.95;9.75;;;25.50;1.00;;;;;;5123480;27;38693;-89
2023/07/09 07:26:19;;;;;;;9.35;8.35;;;25.60;1.00;;;;;;5121404;27;38167;-88
2023/07/09 07:28:46;;;;;;;10.38;8.13;;;25.70;1.00;;;;;;5132341;27;40593;-89
2023/07/09 07:31:13;;;;;;;10.68;6.75;;;25.90;1.00;;;;;;5119029;27;38094;-88
2023/07/09 07:33:41;;;;;;;8.70;5.80;;;26.00;1.00;;;;;;5123152;27;38629;-87
2023/07/09 07:36:08;;;;;;;10.93;5.95;;;26.10;1.00;;;;;;5125762;27;37332;-87
2023/07/09 07:38:34;;;;;;;7.65;5.65;;;26.20;1.00;;;;;;5131387;27;39754;-88
2023/07/09 07:41:01;;;;;;;9.55;6.15;;;26.30;1.00;;;;;;5125953;27;38335;-87
2023/07/09 07:43:28;;;;;;;8.10;5.78;;;26.50;1.00;;;;;;5126187;27;46910;-87
2023/07/09 07:45:54;;;;;;;11.13;5.95;;;26.40;1.00;;;;;;5128014;27;36629;-88
2023/07/09 07:48:20;;;;;;;10.23;5.78;;;26.60;1.00;;;;;;5129845;27;37632;-87
2023/07/09 07:50:47;;;;;;;8.60;5.65;;;26.70;1.00;;;;;;5128099;27;39749;-87
2023/07/09 07:53:15;;;;;;;9.30;5.68;;;26.90;1.00;;;;;;5127925;27;38079;-88
2023/07/09 07:55:42;;;;;;;12.15;6.05;;;27.00;1.00;;;;;;5126235;27;36056;-89
2023/07/09 07:58:13;;;;;;;10.23;6.20;;;26.90;1.00;;;;;;5126529;27;37937;-88
2023/07/09 08:00:40;;;;;;;9.18;6.30;;;26.90;1.00;;;;;;5144729;27;38886;-86
2023/07/09 08:03:06;;;;;;;9.75;5.78;;;26.80;1.00;;;;;;5123510;27;38386;-86
2023/07/09 08:05:32;;;;;;;7.90;5.68;;;26.90;1.00;;;;;;5126676;27;37481;-86
2023/07/09 08:07:58;;;;;;;10.43;6.28;;;27.20;1.00;;;;;;5145849;27;39508;-86
2023/07/09 08:10:24;;;;;;;9.15;5.38;;;27.30;1.00;;;;;;5127145;27;37139;-86
2023/07/09 08:12:51;;;;;;;10.15;5.68;;;27.10;1.00;;;;;;5146160;27;37896;-85
2023/07/09 08:15:17;;;;;;;9.35;5.50;;;27.00;1.00;;;;;;5128935;27;39007;-86
2023/07/09 08:17:43;;;;;;;10.38;6.22;;;26.90;1.00;;;;;;5122239;27;39853;-86
2023/07/09 08:20:10;;;;;;;10.32;5.32;;;26.90;1.00;;;;;;5128925;27;38393;-86
2023/07/09 08:22:36;;;;;;;12.68;6.63;;;27.10;1.00;;;;;;5121390;27;38276;-85
2023/07/09 08:25:02;;;;;;;9.18;5.30;;;27.40;1.00;;;;;;5127932;27;38607;-86
2023/07/09 08:27:28;;;;;;;9.55;5.55;;;27.60;1.00;;;;;;5128069;27;46936;-87
2023/07/09 08:29:55;;;;;;;6.95;5.45;;;27.60;1.00;;;;;;5126557;27;37026;-87
2023/07/09 08:32:21;;;;;;;10.07;5.00;;;27.80;1.00;;;;;;5115187;27;36639;-86
2023/07/09 08:34:47;;;;;;;7.85;5.85;;;28.00;1.00;;;;;;5129465;27;38224;-86
2023/07/09 08:37:13;;;;;;;8.70;5.25;;;28.00;1.00;;;;;;5143097;27;37570;-86
2023/07/09 08:39:40;;;;;;;10.38;5.28;;;28.10;1.00;;;;;;5145292;27;39738;-86
2023/07/09 08:42:13;;;;;;;12.23;5.97;;;28.30;1.00;;;;;;5122873;27;38046;-88
2023/07/09 08:45:02;;;;;;;7.97;5.43;;;28.50;1.00;;;;;;5125586;27;36235;-87
2023/07/09 08:47:46;;;;;;;6.30;5.20;;;28.30;1.00;;;;;;5112980;27;39796;-87
2023/07/09 08:50:22;;;;;;;9.02;5.28;;;28.20;1.00;;;;;;5115326;27;37004;-86
2023/07/09 08:52:51;;;;;;;6.72;5.22;;;28.30;1.00;;;;;;5129957;27;37837;-86
2023/07/09 08:55:24;;;;;;;8.02;5.13;;;28.30;1.00;;;;;;5125712;27;37478;-85
2023/07/09 08:57:57;;;;;;;7.25;5.00;;;28.20;1.00;;;;;;5144657;27;38605;-87
2023/07/09 09:00:49;;;;;;;10.00;5.07;;;28.30;1.00;;;;;;5120338;27;38924;-88
2023/07/09 09:03:46;;;;;;;8.25;4.50;;;28.40;1.00;;;;;;5141124;27;36791;-86
2023/07/09 09:06:19;;;;;;;6.22;4.13;;;28.60;1.00;;;;;;5137447;27;37325;-86
2023/07/09 09:09:33;;;;;;;6.28;4.13;;;28.80;1.00;;;;;;5128157;27;38580;-86
2023/07/09 09:12:28;;;;;;;6.32;4.22;;;29.00;99.90;;;;;;5068778;28;47122;-86
2023/07/09 09:15:04;;;;;;;9.48;4.32;;;29.10;1.00;;;;;;5118816;27;48834;-87
2023/07/09 09:17:34;;;;;;;5.63;4.50;;;29.20;1.00;;;;;;5127449;27;47220;-87
2023/07/09 09:20:04;;;;;;;5.45;3.90;;;29.10;99.90;;;;;;5148582;27;40612;-87
2023/07/09 09:22:40;;;;;;;7.22;3.58;;;29.30;1.00;;;;;;5130420;27;47184;-86
2023/07/09 09:25:15;;;;;;;6.32;3.58;;;29.50;99.90;;;;;;5121138;27;38030;-87
2023/07/09 09:27:41;;;;;;;6.50;3.78;;;29.40;1.00;;;;;;5131096;27;38090;-87
2023/07/09 09:30:16;;;;;;;5.60;3.70;;;29.40;1.00;;;;;;5132154;27;39334;-87
2023/07/09 09:32:45;;;;;;;4.10;3.22;;;29.40;99.90;;;;;;5119468;27;39885;-87
2023/07/09 09:35:13;;;;;;;4.53;2.90;;;29.30;1.00;;;;;;5120623;27;37814;-87
2023/07/09 09:37:40;;;;;;;6.22;3.53;;;29.40;99.90;;;;;;5125070;27;38122;-87
2023/07/09 09:40:09;;;;;;;4.28;3.53;;;29.70;99.90;;;;;;5121363;27;38805;-87
2023/07/09 09:42:35;;;;;;;6.60;3.00;;;29.90;1.00;;;;;;5131271;27;38005;-87
2023/07/09 09:45:02;;;;;;;5.45;3.10;;;30.00;99.90;;;;;;5132374;27;38446;-87
2023/07/09 09:47:28;;;;;;;5.47;3.30;;;29.70;1.00;;;;;;5132044;27;37944;-88
2023/07/09 09:49:54;;;;;;;4.90;2.88;;;29.50;1.00;;;;;;5128149;27;39739;-88
2023/07/09 09:52:29;;;;;;;5.75;3.28;;;29.90;99.90;;;;;;5147286;27;37279;-87
2023/07/09 09:55:02;;;;;;;6.03;3.50;;;30.10;99.90;;;;;;5144293;27;38270;-87
2023/07/09 09:57:28;;;;;;;4.78;3.17;;;30.30;1.00;;;;;;5126256;27;38038;-86
2023/07/09 09:59:55;;;;;;;5.07;3.30;;;30.30;46.00;;;;;;5129157;27;39162;-87
2023/07/09 10:02:23;;;;;;;4.88;2.80;;;30.40;1.00;;;;;;5130237;27;39920;-87
2023/07/09 10:04:51;;;;;;;6.78;3.28;;;30.60;1.00;;;;;;5140743;27;38414;-88
2023/07/09 10:07:33;;;;;;;4.28;3.17;;;30.60;1.00;;;;;;5145566;27;38186;-87
2023/07/09 10:10:01;;;;;;;4.10;2.80;;;30.90;1.00;;;;;;5127222;27;40704;-87
2023/07/09 10:12:44;;;;;;;5.30;2.72;;;30.60;99.90;;;;;;5132067;27;38841;-87
2023/07/09 10:15:29;;;;;;;5.85;2.80;;;30.70;1.00;;;;;;5125065;27;38223;-87
2023/07/09 10:17:58;;;;;;;4.88;2.60;;;30.80;1.00;;;;;;5124668;27;37338;-87
2023/07/09 10:20:31;;;;;;;6.00;2.78;;;30.20;99.90;;;;;;5146950;27;39711;-87
2023/07/09 10:23:28;;;;;;;4.75;2.80;;;29.90;1.00;;;;;;5132442;27;37917;-87
2023/07/09 10:26:13;;;;;;;6.55;2.50;;;29.70;1.00;;;;;;5120200;27;47009;-87
2023/07/09 10:29:04;;;;;;;5.43;2.88;;;29.50;1.00;;;;;;5128521;27;47141;-86
2023/07/09 10:31:52;;;;;;;3.63;2.80;;;29.30;99.90;;;;;;5129256;27;47043;-87
2023/07/09 10:34:46;;;;;;;6.72;2.60;;;29.30;1.00;;;;;;5141078;27;39099;-87
2023/07/09 10:37:12;;;;;;;2.85;2.30;;;29.20;1.00;;;;;;5130785;27;38485;-87
2023/07/09 10:39:46;;;;;;;4.35;2.50;;;29.70;99.90;;;;;;5129958;27;37314;-87
2023/07/09 10:42:21;;;;;;;6.28;2.53;;;30.10;1.00;;;;;;5144165;27;40656;-86
2023/07/09 10:45:03;;;;;;;4.90;2.90;;;29.70;1.00;;;;;;5143053;27;38746;-87
2023/07/09 10:47:34;;;;;;;4.90;2.47;;;29.50;1.00;;;;;;5126306;27;38257;-87
2023/07/09 10:50:03;;;;;;;5.70;3.10;;;29.60;1.00;;;;;;5126328;27;37131;-87
2023/07/09 10:52:37;;;;;;;4.38;2.63;;;29.80;99.90;;;;;;5127931;27;39720;-87
2023/07/09 10:55:16;;;;;;;6.90;2.72;;;29.80;99.90;;;;;;5124704;27;39388;-87
2023/07/09 10:57:56;;;;;;;5.00;2.92;;;30.00;1.00;;;;;;5149374;27;47694;-87
2023/07/09 11:00:33;;;;;;;3.35;2.63;;;29.80;99.90;;;;;;5118408;27;37493;-87
2023/07/09 11:03:05;;;;;;;3.75;2.33;;;29.60;1.00;;;;;;5128967;27;39536;-86
2023/07/09 11:05:33;;;;;;;3.95;2.75;;;29.40;99.90;;;;;;5119233;27;47139;-86
2023/07/09 11:08:07;;;;;;;3.47;2.83;;;29.30;99.90;;;;;;5129451;27;38377;-86
2023/07/09 11:11:10;;;;;;;4.85;2.95;;;29.10;99.90;;;;;;5122731;27;46959;-87
2023/07/09 11:13:41;;;;;;;4.32;3.00;;;29.20;1.00;;;;;;5106917;27;47093;-86
2023/07/09 11:16:15;;;;;;;4.47;2.70;;;29.20;1.00;;;;;;5121963;27;39608;-86
2023/07/09 11:18:52;;;;;;;3.35;2.78;;;29.30;99.90;;;;;;5129742;27;37492;-86
2023/07/09 11:21:18;;;;;;;4.18;2.45;;;29.40;1.00;;;;;;5145005;27;37941;-87
2023/07/09 11:23:50;;;;;;;8.32;2.63;;;29.10;99.90;;;;;;5144625;27;39522;-87
2023/07/09 11:26:25;;;;;;;5.25;2.78;;;29.50;1.00;;;;;;5145972;27;39032;-87
2023/07/09 11:29:01;;;;;;;3.60;2.60;;;30.10;1.00;;;;;;5111841;27;37535;-87
2023/07/09 11:31:38;;;;;;;8.85;2.92;;;30.80;1.00;;;;;;5127399;27;49017;-88
2023/07/09 11:34:07;;;;;;;3.80;2.55;;;30.80;1.00;;;;;;5126836;27;39722;-88
2023/07/09 11:36:45;;;;;;;5.30;2.88;;;30.70;1.00;;;;;;5146018;27;38797;-87
2023/07/09 11:39:35;;;;;;;7.35;2.55;;;30.30;1.00;;;;;;5115186;27;38044;-87
2023/07/09 11:42:02;;;;;;;4.30;2.63;;;29.80;99.90;;;;;;5109089;27;38167;-87
2023/07/09 11:44:33;;;;;;;4.35;2.50;;;29.60;1.00;;;;;;5126378;27;39446;-88
2023/07/09 11:47:22;;;;;;;7.07;2.88;;;29.40;1.00;;;;;;5125177;27;40075;-85
2023/07/09 11:50:22;;;;;;;5.38;2.67;;;28.80;99.90;;;;;;5106109;27;47188;-87
2023/07/09 11:52:56;;;;;;;5.28;2.67;;;28.30;99.90;;;;;;5123146;27;48714;-88
2023/07/09 11:55:44;;;;;;;5.25;3.70;;;28.20;99.90;;;;;;5124426;27;41420;-87
2023/07/09 11:58:17;;;;;;;4.57;2.70;;;28.10;1.00;;;;;;5145567;27;38792;-87
2023/07/09 12:00:48;;;;;;;5.95;2.88;;;27.90;1.00;;;;;;5127201;27;37497;-87
2023/07/09 12:03:28;;;;;;;4.65;2.95;;;27.90;99.90;;;;;;5145067;27;36248;-87
2023/07/09 12:05:59;;;;;;;4.82;3.40;;;27.50;1.00;;;;;;5126346;27;38867;-88
2023/07/09 12:08:33;;;;;;;13.70;3.83;;;27.30;1.00;;;;;;5127334;27;38786;-87
2023/07/09 12:10:59;;;;;;;11.10;4.28;;;27.20;1.00;;;;;;5129737;27;38766;-88
2023/07/09 12:13:26;;;;;;;10.93;3.60;;;27.00;1.00;;;;;;5129186;27;37739;-86
2023/07/09 12:15:52;;;;;;;9.95;4.03;;;26.50;1.00;;;;;;5141023;27;38549;-86
2023/07/09 12:18:18;;;;;;;13.15;4.28;;;26.20;1.00;;;;;;5127830;27;37317;-86
2023/07/09 12:20:54;;;;;;;9.73;4.43;;;26.10;1.00;;;;;;5129061;27;38622;-86
2023/07/09 12:23:31;;;;;;;8.30;4.00;;;25.70;1.00;;;;;;5141037;27;37367;-85
2023/07/09 12:26:03;;;;;;;10.88;4.60;;;25.30;1.00;;;;;;5124612;27;39139;-87
2023/07/09 12:28:30;;;;;;;12.73;5.20;;;25.00;10.60;;;;;;5125462;27;48946;-89
2023/07/09 12:30:56;;;;;;;17.88;5.30;;;24.70;45.60;;;;;;5119001;27;38092;-87
2023/07/09 12:33:25;;;;;;;13.15;4.95;;;24.80;51.10;;;;;;5123107;27;37214;-86
2023/07/09 12:36:05;;;;;;;16.40;5.97;;;24.80;44.00;;;;;;5126169;27;40072;-86
2023/07/09 12:38:48;;;;;;;14.77;5.07;;;24.60;45.80;;;;;;5124439;27;47011;-86
2023/07/09 12:41:24;;;;;;;13.90;4.72;;;24.50;36.10;;;;;;5131959;27;39421;-86
2023/07/09 12:43:56;;;;;;;15.63;4.57;;;24.50;53.30;;;;;;5130197;27;37604;-86
2023/07/09 12:46:27;;;;;;;15.85;5.00;;;24.80;56.80;;;;;;5122023;27;39659;-86
2023/07/09 12:48:55;;;;;;;10.85;4.13;;;24.90;28.80;;;;;;5145090;27;40759;-88
2023/07/09 12:51:27;;;;;;;8.27;4.25;;;24.60;50.30;;;;;;5147613;27;38044;-86
2023/07/09 12:54:15;;;;;;;10.90;4.18;;;24.70;51.50;;;;;;5130154;27;37403;-87